createdAt,value
2023-04-18T00:00:34.504Z,8.28
2023-04-18T00:03:04.515Z,8.77
2023-04-18T00:05:34.396Z,9.27
2023-04-18T00:08:02.444Z,9.32
2023-04-18T00:10:30.449Z,9.59
2023-04-18T00:13:00.470Z,9.85
2023-04-18T00:15:29.508Z,9.34
2023-04-18T00:17:57.995Z,9.15
2023-04-18T00:20:27.477Z,9.54
2023-04-18T00:22:58.212Z,9.57
2023-04-18T00:25:27.803Z,9.50
2023-04-18T00:27:55.928Z,10.34
2023-04-18T00:30:25.429Z,10.24
2023-04-18T00:32:53.736Z,10.49
2023-04-18T00:35:22.147Z,11.04
2023-04-18T00:37:50.575Z,11.03
2023-04-18T00:40:20.292Z,10.69
2023-04-18T00:42:48.227Z,10.98
2023-04-18T00:45:16.344Z,11.50
2023-04-18T00:47:44.506Z,11.73
2023-04-18T00:50:14.242Z,11.95
2023-04-18T00:52:43.584Z,11.68
2023-04-18T00:55:12.082Z,11.84
2023-04-18T00:57:42.167Z,12.47
2023-04-18T01:00:12.352Z,13.49
2023-04-18T01:02:41.691Z,13.40
2023-04-18T01:05:10.902Z,14.31
2023-04-18T01:07:41.932Z,14.06
2023-04-18T01:10:12.234Z,13.66
2023-04-18T01:12:43.475Z,13.65
2023-04-18T01:15:12.596Z,13.31
2023-04-18T01:17:40.865Z,15.06
2023-04-18T01:20:11.148Z,14.79
2023-04-18T01:22:41.467Z,14.57
2023-04-18T01:25:12.764Z,14.94
2023-04-18T01:27:41.334Z,15.06
2023-04-18T01:30:11.664Z,15.31
2023-04-18T01:36:29.428Z,16.26
2023-04-18T01:38:57.616Z,15.88
2023-04-18T01:41:29.069Z,15.20
2023-04-18T01:43:57.266Z,15.59
2023-04-18T01:46:25.606Z,15.87
2023-04-18T01:48:54.137Z,16.35
2023-04-18T01:51:23.663Z,16.62
2023-04-18T01:53:51.832Z,16.50
2023-04-18T01:56:19.935Z,15.96
2023-04-18T01:58:49.580Z,16.42
2023-04-18T02:01:17.623Z,17.33
2023-04-18T02:03:46.220Z,17.31
2023-04-18T02:06:14.738Z,17.16
2023-04-18T02:08:42.857Z,17.30
2023-04-18T02:11:10.985Z,18.27
2023-04-18T02:13:39.010Z,18.57
2023-04-18T02:16:13.624Z,18.03
2023-04-18T02:18:45.636Z,18.40
2023-04-18T02:21:15.198Z,18.91
2023-04-18T02:23:43.429Z,18.23
2023-04-18T02:26:11.806Z,18.71
2023-04-18T02:28:40.381Z,19.34
2023-04-18T02:31:14.516Z,18.74
2023-04-18T02:33:43.327Z,19.74
2023-04-18T02:36:11.759Z,19.71
2023-04-18T02:38:40.472Z,20.10
2023-04-18T02:41:09.026Z,20.82
2023-04-18T02:43:37.957Z,20.79
2023-04-18T02:46:06.358Z,20.98
2023-04-18T02:48:36.481Z,20.07
2023-04-18T02:51:06.893Z,21.23
2023-04-18T02:53:37.907Z,21.14
2023-04-18T02:56:08.695Z,21.69
2023-04-18T02:59:09.296Z,22.16
2023-04-18T03:01:58.630Z,22.40
2023-04-18T03:04:28.144Z,21.80
2023-04-18T03:07:00.433Z,22.51
2023-04-18T03:09:31.247Z,22.38
2023-04-18T03:12:04.971Z,22.78
2023-04-18T03:14:33.862Z,22.21
2023-04-18T03:17:02.322Z,22.90
2023-04-18T03:19:38.147Z,22.75
2023-04-18T03:22:10.580Z,22.31
2023-04-18T03:24:46.063Z,23.32
2023-04-18T03:27:14.825Z,24.30
2023-04-18T03:29:45.420Z,22.85
2023-04-18T03:32:14.161Z,23.46
2023-04-18T03:34:43.905Z,24.10
2023-04-18T03:37:12.439Z,23.07
2023-04-18T03:39:46.417Z,23.36
2023-04-18T03:42:15.389Z,23.85
2023-04-18T03:44:44.964Z,23.51
2023-04-18T03:47:14.875Z,23.34
2023-04-18T03:49:47.073Z,24.29
2023-04-18T03:52:16.286Z,24.71
2023-04-18T03:54:44.831Z,24.08
2023-04-18T03:57:13.742Z,24.38
2023-04-18T03:59:46.113Z,24.98
2023-04-18T04:02:16.051Z,24.44
2023-04-18T04:04:44.216Z,24.83
2023-04-18T04:07:14.272Z,24.27
2023-04-18T04:09:43.727Z,24.18
2023-04-18T04:12:12.116Z,25.42
2023-04-18T04:14:40.220Z,26.20
2023-04-18T04:17:08.416Z,25.10
2023-04-18T04:19:37.537Z,25.83
2023-04-18T04:22:17.634Z,26.80
2023-04-18T04:24:46.950Z,26.18
2023-04-18T04:27:19.127Z,26.12
2023-04-18T04:29:49.193Z,26.65
2023-04-18T04:32:17.959Z,26.69
2023-04-18T04:34:46.455Z,26.18
2023-04-18T04:37:15.229Z,25.44
2023-04-18T04:40:00.816Z,25.55
2023-04-18T04:42:29.447Z,25.67
2023-04-18T04:45:05.762Z,26.35
2023-04-18T04:47:34.002Z,25.72
2023-04-18T04:50:02.082Z,26.30
2023-04-18T04:52:33.322Z,25.82
2023-04-18T04:55:03.128Z,26.93
2023-04-18T04:57:31.723Z,26.38
2023-04-18T05:00:00.202Z,26.36
2023-04-18T05:02:30.105Z,25.87
2023-04-18T05:04:59.713Z,27.46
2023-04-18T05:07:28.045Z,27.79
2023-04-18T05:09:56.095Z,26.47
2023-04-18T05:12:26.859Z,26.77
2023-04-18T05:14:55.140Z,26.66
2023-04-18T05:17:23.451Z,26.92
2023-04-18T05:19:51.891Z,26.51
2023-04-18T05:22:20.168Z,26.68
2023-04-18T05:24:48.199Z,27.03
2023-04-18T05:27:18.096Z,26.60
2023-04-18T05:29:49.366Z,27.31
2023-04-18T05:32:18.373Z,27.00
2023-04-18T05:34:47.183Z,26.64
2023-04-18T05:37:15.437Z,27.12
2023-04-18T05:39:43.730Z,27.90
2023-04-18T05:42:12.389Z,27.68
2023-04-18T05:44:40.717Z,27.10
2023-04-18T05:47:10.436Z,27.31
2023-04-18T05:49:38.427Z,26.60
2023-04-18T05:52:06.537Z,26.47
2023-04-18T05:54:34.952Z,28.13
2023-04-18T05:57:04.527Z,26.94
2023-04-18T05:59:33.087Z,26.11
2023-04-18T06:02:01.319Z,26.76
2023-04-18T06:04:31.439Z,26.70
2023-04-18T06:06:59.783Z,26.82
2023-04-18T06:09:27.818Z,27.59
2023-04-18T06:11:58.028Z,27.05
2023-04-18T06:14:26.700Z,27.45
2023-04-18T06:16:55.418Z,27.36
2023-04-18T06:19:23.672Z,26.79
2023-04-18T06:21:53.838Z,26.56
2023-04-18T06:24:22.161Z,25.79
2023-04-18T06:26:50.956Z,27.20
2023-04-18T06:29:20.337Z,26.54
2023-04-18T06:31:48.749Z,26.18
2023-04-18T06:34:17.011Z,25.53
2023-04-18T06:36:45.496Z,25.50
2023-04-18T06:39:15.283Z,25.65
2023-04-18T06:41:43.549Z,25.65
2023-04-18T06:44:11.792Z,24.96
2023-04-18T06:46:40.005Z,25.11
2023-04-18T06:49:08.211Z,24.94
2023-04-18T06:51:36.573Z,25.16
2023-04-18T06:54:05.135Z,24.85
2023-04-18T06:56:36.358Z,25.21
2023-04-18T06:59:06.719Z,24.63
2023-04-18T07:01:35.536Z,24.47
2023-04-18T07:04:04.390Z,24.11
2023-04-18T07:06:32.777Z,22.37
2023-04-18T07:09:01.817Z,23.16
2023-04-18T07:11:30.395Z,24.05
2023-04-18T07:13:59.876Z,22.51
2023-04-18T07:16:28.453Z,22.17
2023-04-18T07:18:56.526Z,22.47
2023-04-18T07:21:25.254Z,22.73
2023-04-18T07:23:53.359Z,22.15
2023-04-18T07:26:21.690Z,21.54
2023-04-18T07:28:50.801Z,22.32
2023-04-18T07:31:20.596Z,20.66
2023-04-18T07:33:48.761Z,20.87
2023-04-18T07:36:17.023Z,20.12
2023-04-18T07:38:46.200Z,20.45
2023-04-18T07:41:14.487Z,19.70
2023-04-18T07:43:44.898Z,19.93
2023-04-18T07:46:13.111Z,18.71
2023-04-18T07:48:42.611Z,19.63
2023-04-18T07:51:10.617Z,19.10
2023-04-18T07:53:40.871Z,18.96
2023-04-18T07:56:08.995Z,18.92
2023-04-18T07:58:37.363Z,17.85
2023-04-18T08:01:06.142Z,18.16
2023-04-18T08:03:36.432Z,16.33
2023-04-18T08:06:08.400Z,16.21
2023-04-18T08:08:37.742Z,15.77
2023-04-18T08:11:06.095Z,16.37
2023-04-18T08:13:34.276Z,15.76
2023-04-18T08:16:03.007Z,15.75
2023-04-18T08:18:31.235Z,15.87
2023-04-18T08:20:59.705Z,16.23
2023-04-18T08:23:29.231Z,15.81
2023-04-18T08:25:57.270Z,16.48
2023-04-18T08:28:25.905Z,15.65
2023-04-18T08:30:55.509Z,15.82
2023-04-18T08:33:24.291Z,15.41
2023-04-18T08:35:53.209Z,15.52
2023-04-18T08:38:21.572Z,15.64
2023-04-18T08:40:51.164Z,16.06
2023-04-18T08:43:19.359Z,15.32
2023-04-18T08:45:48.423Z,16.26
2023-04-18T08:48:18.410Z,16.11
2023-04-18T08:50:47.791Z,16.29
2023-04-18T08:53:17.752Z,17.67
2023-04-18T08:55:47.764Z,17.74
2023-04-18T08:58:23.079Z,17.80
2023-04-18T09:00:52.889Z,17.33
2023-04-18T09:03:37.896Z,18.18
2023-04-18T09:06:12.606Z,19.04
2023-04-18T09:08:43.440Z,18.48
2023-04-18T09:11:26.115Z,19.16
2023-04-18T09:13:58.791Z,18.57
2023-04-18T09:16:29.464Z,19.09
2023-04-18T09:19:13.093Z,19.88
2023-04-18T09:21:44.464Z,19.02
2023-04-18T09:24:24.139Z,18.97
2023-04-18T09:26:54.027Z,19.21
2023-04-18T09:29:42.467Z,18.85
2023-04-18T09:32:10.690Z,19.05
2023-04-18T09:34:43.857Z,18.26
2023-04-18T09:37:14.263Z,17.66
2023-04-18T09:39:45.096Z,17.83
2023-04-18T09:42:13.872Z,17.70
2023-04-18T09:45:03.728Z,17.61
2023-04-18T09:47:36.541Z,17.05
2023-04-18T09:50:06.907Z,17.17
2023-04-18T09:52:37.123Z,16.74
2023-04-18T09:55:07.733Z,16.73
2023-04-18T09:57:40.554Z,17.27
2023-04-18T10:00:17.427Z,16.37
2023-04-18T10:02:51.260Z,16.85
2023-04-18T10:05:21.432Z,15.85
2023-04-18T10:07:52.139Z,15.75
2023-04-18T10:10:20.838Z,15.82
2023-04-18T10:12:50.810Z,14.94
2023-04-18T10:15:24.141Z,15.08
2023-04-18T10:18:04.249Z,15.07
2023-04-18T10:20:34.874Z,14.75
2023-04-18T10:23:36.511Z,14.63
2023-04-18T10:26:06.053Z,15.21
2023-04-18T10:28:54.562Z,14.67
2023-04-18T10:31:25.796Z,15.14
2023-04-18T10:34:04.674Z,15.66
2023-04-18T10:36:34.743Z,15.39
2023-04-18T10:39:21.193Z,16.85
2023-04-18T10:41:51.424Z,16.46
2023-04-18T10:44:24.223Z,16.57
2023-04-18T10:47:32.223Z,15.33
2023-04-18T10:50:06.757Z,15.11
2023-04-18T10:52:35.920Z,15.19
2023-04-18T10:55:25.329Z,15.12
2023-04-18T10:57:56.392Z,15.07
2023-04-18T11:00:29.169Z,14.38
2023-04-18T11:03:00.441Z,14.50
2023-04-18T11:05:30.596Z,13.86
2023-04-18T11:07:58.989Z,13.61
2023-04-18T11:10:29.471Z,13.54
2023-04-18T11:12:59.456Z,13.37
2023-04-18T11:15:29.758Z,13.54
2023-04-18T11:18:01.815Z,13.56
2023-04-18T11:20:39.607Z,13.64
2023-04-18T11:23:17.845Z,13.93
2023-04-18T11:25:47.123Z,13.36
2023-04-18T11:28:21.168Z,13.21
2023-04-18T11:30:49.430Z,13.06
2023-04-18T11:33:17.870Z,13.21
2023-04-18T11:35:48.421Z,12.70
2023-04-18T11:38:18.523Z,12.51
2023-04-18T11:40:50.591Z,12.79
2023-04-18T11:43:22.102Z,12.31
2023-04-18T11:45:54.696Z,11.57
2023-04-18T11:48:23.413Z,11.69
2023-04-18T11:50:52.962Z,11.30
2023-04-18T11:53:33.877Z,11.64
2023-04-18T11:56:03.846Z,11.11
2023-04-18T11:58:33.333Z,11.23
2023-04-18T12:01:16.179Z,11.23
2023-04-18T12:03:45.839Z,11.36
2023-04-18T12:06:15.976Z,10.46
2023-04-18T12:08:44.527Z,10.92
2023-04-18T12:11:21.626Z,11.03
2023-04-18T12:13:50.001Z,10.31
2023-04-18T12:16:18.313Z,10.10
2023-04-18T12:18:49.366Z,10.54
2023-04-18T12:21:19.713Z,10.89
2023-04-18T12:23:48.116Z,10.30
2023-04-18T12:26:19.150Z,10.39
2023-04-18T12:28:48.076Z,10.25
2023-04-18T12:31:16.391Z,10.26
2023-04-18T12:33:44.542Z,11.81
2023-04-18T12:36:12.667Z,11.20
2023-04-18T12:38:42.331Z,10.53
2023-04-18T12:41:11.277Z,10.33
2023-04-18T12:43:39.656Z,9.87
2023-04-18T12:46:07.791Z,10.36
2023-04-18T12:48:36.201Z,10.17
2023-04-18T12:51:04.464Z,9.72
2023-04-18T12:53:32.644Z,10.25
2023-04-18T12:56:02.544Z,9.93
2023-04-18T12:58:30.648Z,10.05
2023-04-18T13:00:59.722Z,9.98
2023-04-18T13:03:28.052Z,10.61
2023-04-18T13:05:56.551Z,10.31
2023-04-18T13:08:24.748Z,10.06
2023-04-18T13:10:52.772Z,9.87
2023-04-18T13:13:22.326Z,9.91
2023-04-18T13:15:51.441Z,9.50
2023-04-18T13:18:20.405Z,10.09
2023-04-18T13:20:49.809Z,9.66
2023-04-18T13:23:17.915Z,10.27
2023-04-18T13:25:46.032Z,9.94
2023-04-18T13:28:14.506Z,9.79
2023-04-18T13:30:44.247Z,8.56
2023-04-18T13:33:12.425Z,7.91
2023-04-18T13:35:41.828Z,9.17
2023-04-18T13:38:11.317Z,9.02
2023-04-18T13:40:39.874Z,8.91
2023-04-18T13:43:07.785Z,10.49
2023-04-18T13:45:36.129Z,17.33
2023-04-18T13:48:06.646Z,18.05
2023-04-18T13:50:34.966Z,12.07
2023-04-18T13:53:03.111Z,8.12
2023-04-18T13:55:31.041Z,7.81
2023-04-18T13:57:59.440Z,7.03
2023-04-18T14:00:28.163Z,8.07
2023-04-18T14:02:57.470Z,8.54
2023-04-18T14:05:27.108Z,8.49
2023-04-18T14:08:01.827Z,9.13
2023-04-18T14:10:30.115Z,8.37
2023-04-18T14:12:58.496Z,7.81
2023-04-18T14:15:26.989Z,8.53
2023-04-18T14:17:55.090Z,7.91
2023-04-18T14:20:23.354Z,7.01
2023-04-18T14:22:53.344Z,8.07
2023-04-18T14:25:22.186Z,8.01
2023-04-18T14:27:50.285Z,7.86
2023-04-18T14:30:18.302Z,9.17
2023-04-18T14:32:46.602Z,9.37
2023-04-18T14:35:15.045Z,9.49
2023-04-18T14:37:43.993Z,9.80
2023-04-18T14:40:14.608Z,9.42
2023-04-18T14:42:43.015Z,9.12
2023-04-18T14:45:12.898Z,8.81
2023-04-18T14:47:42.024Z,8.57
2023-04-18T14:50:12.849Z,8.67
2023-04-18T14:52:41.896Z,8.13
2023-04-18T14:55:11.278Z,8.17
2023-04-18T14:57:41.323Z,7.78
2023-04-18T15:00:12.630Z,7.79
2023-04-18T15:02:41.107Z,7.76
2023-04-18T15:05:11.476Z,7.86
2023-04-18T15:07:40.812Z,7.99
2023-04-18T15:10:12.627Z,8.30
2023-04-18T15:12:42.792Z,8.14
2023-04-18T15:15:11.702Z,9.49
2023-04-18T15:17:40.256Z,9.74
2023-04-18T15:20:09.726Z,10.00
2023-04-18T15:22:38.258Z,10.62
2023-04-18T15:25:07.658Z,10.87
2023-04-18T15:27:36.309Z,11.03
2023-04-18T15:30:07.803Z,11.38
2023-04-18T15:32:37.036Z,11.75
2023-04-18T15:35:06.683Z,11.72
2023-04-18T15:37:34.900Z,11.94
2023-04-18T15:40:03.952Z,12.00
2023-04-18T15:42:32.283Z,12.05
2023-04-18T15:45:00.424Z,11.77
2023-04-18T15:47:30.024Z,11.98
2023-04-18T15:49:58.088Z,12.54
2023-04-18T15:52:26.732Z,11.71
2023-04-18T15:54:55.309Z,11.67
2023-04-18T15:57:23.697Z,11.36
2023-04-18T15:59:52.245Z,10.88
2023-04-18T16:02:20.409Z,11.04
2023-04-18T16:04:50.355Z,10.34
2023-04-18T16:07:18.801Z,10.45
2023-04-18T16:09:46.958Z,10.40
2023-04-18T16:12:15.387Z,10.49
2023-04-18T16:14:43.370Z,11.01
2023-04-18T16:17:11.522Z,10.67
2023-04-18T16:19:40.956Z,11.28
2023-04-18T16:22:12.386Z,10.88
2023-04-18T16:24:42.173Z,11.16
2023-04-18T16:27:10.454Z,11.68
2023-04-18T16:29:38.388Z,11.54
2023-04-18T16:32:08.132Z,11.89
2023-04-18T16:34:36.920Z,12.17
2023-04-18T16:37:05.546Z,12.45
2023-04-18T16:39:34.949Z,12.04
2023-04-18T16:42:03.599Z,11.02
2023-04-18T16:44:33.224Z,11.11
2023-04-18T16:47:01.518Z,10.24
2023-04-18T16:49:29.669Z,9.78
2023-04-18T16:51:57.946Z,10.09
2023-04-18T16:54:26.089Z,10.09
2023-04-18T16:56:55.886Z,9.76
2023-04-18T16:59:24.253Z,10.18
2023-04-18T17:01:52.790Z,10.80
2023-04-18T17:04:21.060Z,10.16
2023-04-18T17:06:51.477Z,10.76
2023-04-18T17:09:20.505Z,10.21
2023-04-18T17:11:48.728Z,10.17
2023-04-18T17:14:18.436Z,10.44
2023-04-18T17:16:46.813Z,10.51
2023-04-18T17:19:15.424Z,10.74
2023-04-18T17:21:44.108Z,10.98
2023-04-18T17:24:12.559Z,11.38
2023-04-18T17:26:41.001Z,11.78
2023-04-18T17:29:09.433Z,12.75
2023-04-18T17:31:39.801Z,13.85
2023-04-18T17:34:08.341Z,13.10
2023-04-18T17:36:36.676Z,12.62
2023-04-18T17:39:06.603Z,12.12
2023-04-18T17:41:37.973Z,12.00
2023-04-18T17:44:08.004Z,11.99
2023-04-18T17:46:36.319Z,12.33
2023-04-18T17:49:05.883Z,11.61
2023-04-18T17:51:33.906Z,11.76
2023-04-18T17:54:02.264Z,12.37
2023-04-18T17:56:31.601Z,11.79
2023-04-18T17:58:59.744Z,10.92
2023-04-18T18:01:30.353Z,10.45
2023-04-18T18:03:59.000Z,10.08
2023-04-18T18:06:28.763Z,10.91
2023-04-18T18:08:56.918Z,10.43
2023-04-18T18:11:24.902Z,11.07
2023-04-18T18:13:54.870Z,9.94
2023-04-18T18:16:24.078Z,9.57
2023-04-18T18:18:52.721Z,10.09
2023-04-18T18:21:21.119Z,9.98
2023-04-18T18:23:51.001Z,10.42
2023-04-18T18:26:19.000Z,12.06
2023-04-18T18:28:47.151Z,11.03
2023-04-18T18:31:15.607Z,10.55
2023-04-18T18:33:43.776Z,11.27
2023-04-18T18:36:12.335Z,11.13
2023-04-18T18:38:40.478Z,11.14
2023-04-18T18:41:10.060Z,11.27
2023-04-18T18:43:38.894Z,10.79
2023-04-18T18:46:06.978Z,11.12
2023-04-18T18:48:38.013Z,10.57
2023-04-18T18:51:06.620Z,11.24
2023-04-18T18:53:34.738Z,11.58
2023-04-18T18:56:03.015Z,11.64
2023-04-18T18:58:32.906Z,11.32
2023-04-18T19:01:02.639Z,11.06
2023-04-18T19:03:31.922Z,11.19
2023-04-18T19:06:04.135Z,11.59
2023-04-18T19:08:32.301Z,12.00
2023-04-18T19:11:00.605Z,11.59
2023-04-18T19:13:29.247Z,12.42
2023-04-18T19:15:59.843Z,17.18
2023-04-18T19:18:28.434Z,18.85
2023-04-18T19:20:56.881Z,15.96
2023-04-18T19:23:30.939Z,14.63
2023-04-18T19:25:59.329Z,14.77
2023-04-18T19:28:28.031Z,17.20
2023-04-18T19:30:56.282Z,24.02
2023-04-18T19:33:26.621Z,24.80
2023-04-18T19:35:55.127Z,17.31
2023-04-18T19:38:23.489Z,17.05
2023-04-18T19:40:51.793Z,13.57
2023-04-18T19:43:19.814Z,13.63
2023-04-18T19:45:48.268Z,13.53
2023-04-18T19:48:16.495Z,13.60
2023-04-18T19:50:47.167Z,12.74
2023-04-18T19:53:15.904Z,13.07
2023-04-18T19:55:46.497Z,13.01
2023-04-18T19:58:34.823Z,14.00
2023-04-18T20:01:06.031Z,13.85
2023-04-18T20:03:34.843Z,13.39
2023-04-18T20:06:05.522Z,13.11
2023-04-18T20:08:34.103Z,13.88
2023-04-18T20:11:02.484Z,13.97
2023-04-18T20:13:30.798Z,14.46
2023-04-18T20:15:59.671Z,14.85
2023-04-18T20:18:29.369Z,15.05
2023-04-18T20:20:57.504Z,14.78
2023-04-18T20:23:27.399Z,14.62
2023-04-18T20:25:56.197Z,14.93
2023-04-18T20:28:25.195Z,14.45
2023-04-18T20:30:53.892Z,13.96
2023-04-18T20:33:22.334Z,14.48
2023-04-18T20:35:50.928Z,14.46
2023-04-18T20:38:20.169Z,14.43
2023-04-18T20:40:53.036Z,14.50
2023-04-18T20:43:22.792Z,13.69
2023-04-18T20:45:52.042Z,14.55
2023-04-18T20:48:20.961Z,14.09
2023-04-18T20:50:51.319Z,14.07
2023-04-18T20:53:21.613Z,14.03
2023-04-18T20:55:51.351Z,14.33
2023-04-18T20:58:19.797Z,14.47
2023-04-18T21:00:48.342Z,14.86
2023-04-18T21:03:17.400Z,14.48
2023-04-18T21:05:46.169Z,13.98
2023-04-18T21:08:14.098Z,14.00
2023-04-18T21:10:42.072Z,13.94
2023-04-18T21:13:12.492Z,14.39
2023-04-18T21:15:41.982Z,13.94
2023-04-18T21:18:10.087Z,13.75
2023-04-18T21:20:38.072Z,14.42
2023-04-18T21:23:06.151Z,14.41
2023-04-18T21:25:34.183Z,14.38
2023-04-18T21:28:02.358Z,13.68
2023-04-18T21:30:31.929Z,13.68
2023-04-18T21:32:59.885Z,13.76
2023-04-18T21:35:29.684Z,13.99
2023-04-18T21:37:58.870Z,13.74
2023-04-18T21:40:30.772Z,13.68
2023-04-18T21:42:58.725Z,13.55
2023-04-18T21:45:27.064Z,13.73
2023-04-18T21:47:56.477Z,13.50
2023-04-18T21:50:24.792Z,13.51
2023-04-18T21:52:52.739Z,13.82
2023-04-18T21:55:20.832Z,13.62
2023-04-18T21:57:48.803Z,13.82
2023-04-18T22:00:18.558Z,14.29
2023-04-18T22:02:47.065Z,14.11
2023-04-18T22:05:17.812Z,13.40
2023-04-18T22:07:57.292Z,14.04
2023-04-18T22:10:26.960Z,14.10
2023-04-18T22:12:55.996Z,14.39
2023-04-18T22:15:27.117Z,13.90
2023-04-18T22:17:56.037Z,13.91
2023-04-18T22:20:27.194Z,14.01
2023-04-18T22:22:55.750Z,12.99
2023-04-18T22:25:23.796Z,13.03
2023-04-18T22:27:51.885Z,12.78
2023-04-18T22:30:20.449Z,13.23
2023-04-18T22:32:49.255Z,12.97
2023-04-18T22:35:17.724Z,13.23
2023-04-18T22:37:47.531Z,13.03
2023-04-18T22:40:16.545Z,13.31
2023-04-18T22:42:44.832Z,13.00
2023-04-18T22:45:13.801Z,12.47
2023-04-18T22:47:42.036Z,12.13
2023-04-18T22:50:11.253Z,12.40
2023-04-18T22:52:39.480Z,12.28
2023-04-18T22:55:10.204Z,12.24
2023-04-18T22:57:39.709Z,12.19
2023-04-18T23:00:10.292Z,12.55
2023-04-18T23:02:38.585Z,12.54
2023-04-18T23:05:08.199Z,12.30
2023-04-18T23:07:36.599Z,11.86
2023-04-18T23:10:06.625Z,12.38
2023-04-18T23:12:36.305Z,12.60
2023-04-18T23:15:04.963Z,12.29
2023-04-18T23:17:34.860Z,12.28
2023-04-18T23:20:03.805Z,12.24
2023-04-18T23:22:32.660Z,12.31
2023-04-18T23:25:00.944Z,12.34
2023-04-18T23:27:29.495Z,12.78
2023-04-18T23:29:59.058Z,12.48
2023-04-18T23:32:27.321Z,12.65
2023-04-18T23:34:55.669Z,12.38
2023-04-18T23:37:23.966Z,12.42
2023-04-18T23:39:52.325Z,12.50
2023-04-18T23:42:20.278Z,13.00
2023-04-18T23:44:49.901Z,12.37
2023-04-18T23:47:20.833Z,11.86
2023-04-18T23:49:49.351Z,12.51
2023-04-18T23:52:17.522Z,13.00
2023-04-18T23:54:45.798Z,11.96
2023-04-18T23:57:13.980Z,11.90
2023-04-18T23:59:42.218Z,12.30
